Bruk link Alternativ webside om du vil se statistikk,rapport,graf,analyse og mye mer.

Vårt webkamera more information My webcam


webkamera på Randaberg more information webcam on Randaberg


Nedbørsradar  rain snow radar


Besøk vår andre værside:

Alternativ webside

Alternativ mobil

Regnskvett RandabergWebsite of another weatherstation



Ikke nødvendig med spesiell oppmerksomhet.    Det er ingen advarsler

Nære METAR rapporter

   
ENHD - Haugesund
oppdatert: 29-11-2020 10:20
For det meste skyet  
For det meste skyet  
   Vind: SSØ 5.7 m/s
Vind: SSØ 5.7 m/s
Temperatur: 7°C
Wind Chill: 3°C
Duggpunkt: 4°C
Fuktighet: 81%
Barometer: 1028 hPa
Skyer: For det meste skyet
Sikt: More than 10 km
Skydetaljer: få skyer 640.1 m,
Delvis Skyet 792.5 m,
For det meste skyet 2072.6 m
ENHD 290920Z 15011KT 9999 FEW021 SCT026 BKN068 07/04 Q1028
ENZV - Randaberg
oppdatert: 29-11-2020 10:20
Delvis Skyet  
Delvis Skyet  
   Vind: ØSØ 3.1 m/s
Vind: ØSØ 3.1 m/s
Temperatur: 5°C
Wind Chill: 2°C
Duggpunkt: 2°C
Fuktighet: 81%
Barometer: 1028 hPa
Skyer: Delvis Skyet
Sikt: More than 10 km
Skydetaljer: få skyer 762 m,
Delvis Skyet 1066.8 m
ENZV 290920Z 12006KT 9999 FEW025 SCT035 05/02 Q1028 NOSIG
ENBR - Bergen
oppdatert: 29-11-2020 10:20
For det meste skyet  
For det meste skyet  
   Vind: SSØ 5.7 m/s
Vind: SSØ 5.7 m/s
Temperatur: 6°C
Wind Chill: 2°C
Duggpunkt: 3°C
Fuktighet: 81%
Barometer: 1026 hPa
Skyer: For det meste skyet
Sikt: More than 10 km
Skydetaljer: få skyer 457.2 m,
Delvis Skyet 609.6 m,
For det meste skyet 762 m
ENBR 290920Z 15011KT 9999 FEW015CB SCT020 BKN025 06/03 Q1026 TEMPO SHRA BKN012 RMK WIND 1200FT 16021KT
ENCN - Kristiansand
oppdatert: 29-11-2020 10:20
For det meste skyet  
For det meste skyet  
   Vind: NØ 2.1 m/s
Vind: NØ 2.1 m/s
Temperatur: 1°C
Wind Chill: -1°C
Duggpunkt: 1°C
Fuktighet: 100%
Barometer: 1029 hPa
Skyer: For det meste skyet
Sikt: More than 10 km
Skydetaljer: For det meste skyet 853.4 m
ENCN 290920Z 05004KT 9999 BKN028 01/01 Q1029
ENGM - Oslo
oppdatert: 29-11-2020 10:20
Dis, Overskyet  
Dis, Overskyet  
   Vind: varierer 1 m/s
Vind: varierer 1 m/s
Temperatur: -4°C
Duggpunkt: -4°C
Fuktighet: 100%
Barometer: 1028 hPa
Skyer: Overskyet
Sikt: 7 km
Skydetaljer: Overskyet 61 m
ENGM 290920Z VRB02KT 7000 3100NE BR OVC002 M04/M04 Q1028 TEMPO 4000 BR
ENVA - Trondheim
oppdatert: 29-11-2020 10:20
Klart  
Klart  
   Vind: Øst 2.6 m/s
Vind: Øst 2.6 m/s
Temperatur: -6°C
Wind Chill: -10°C
Duggpunkt: -7°C
Fuktighet: 93%
Barometer: 1027 hPa
Sikt: More than 10 km
Skydetaljer: Klart
ENVA 290920Z 10005KT CAVOK M06/M07 Q1027 NOSIG RMK WIND 670FT 15005KT

Script utviklet av  Saratoga-weather.org Tilrettelagt for malen av  Weerstation Leuven

Du finner vår vær info også på:

European Weather Network

WeatherCloud

Weather Underground

Citizen Weather Observer Program (CWOP)

Utstyr vi bruker:

Værstsjon
Oregon scientific WMR 300

Værprogram
Meteobridge

Oregon scientific WMR 300

Meteobridge